sensor_id;sensor_type;location;lat;lon;timestamp;temperature;humidity
13052;DHT22;6592;47.484;9.726;2022-10-16T00:01:29;15.70;99.90
13052;DHT22;6592;47.484;9.726;2022-10-16T00:03:58;15.70;99.90
13052;DHT22;6592;47.484;9.726;2022-10-16T00:06:28;15.70;99.90
13052;DHT22;6592;47.484;9.726;2022-10-16T00:08:56;15.70;99.90
13052;DHT22;6592;47.484;9.726;2022-10-16T00:11:26;15.70;99.90
13052;DHT22;6592;47.484;9.726;2022-10-16T00:13:57;15.70;99.90
13052;DHT22;6592;47.484;9.726;2022-10-16T00:16:26;15.60;99.90
13052;DHT22;6592;47.484;9.726;2022-10-16T00:18:55;15.60;99.90
13052;DHT22;6592;47.484;9.726;2022-10-16T00:21:24;15.60;99.90
13052;DHT22;6592;47.484;9.726;2022-10-16T00:23:56;15.60;99.90
13052;DHT22;6592;47.484;9.726;2022-10-16T00:26:27;15.60;99.90
13052;DHT22;6592;47.484;9.726;2022-10-16T00:28:57;15.60;99.90
13052;DHT22;6592;47.484;9.726;2022-10-16T00:31:26;15.60;99.90
13052;DHT22;6592;47.484;9.726;2022-10-16T00:33:54;15.60;99.90
13052;DHT22;6592;47.484;9.726;2022-10-16T00:36:24;15.60;99.90
13052;DHT22;6592;47.484;9.726;2022-10-16T00:38:54;15.60;99.90
13052;DHT22;6592;47.484;9.726;2022-10-16T00:41:24;15.50;99.90
13052;DHT22;6592;47.484;9.726;2022-10-16T00:43:54;15.50;99.90
13052;DHT22;6592;47.484;9.726;2022-10-16T00:46:26;15.50;99.90
13052;DHT22;6592;47.484;9.726;2022-10-16T00:48:57;15.50;99.90
13052;DHT22;6592;47.484;9.726;2022-10-16T00:51:31;15.40;99.90
13052;DHT22;6592;47.484;9.726;2022-10-16T00:54:02;15.40;99.90
13052;DHT22;6592;47.484;9.726;2022-10-16T00:56:32;15.40;99.90
13052;DHT22;6592;47.484;9.726;2022-10-16T00:59:04;15.40;99.90
13052;DHT22;6592;47.484;9.726;2022-10-16T01:01:36;15.40;99.90
13052;DHT22;6592;47.484;9.726;2022-10-16T01:04:05;15.30;99.90
13052;DHT22;6592;47.484;9.726;2022-10-16T01:06:38;15.30;99.90
13052;DHT22;6592;47.484;9.726;2022-10-16T01:09:17;15.40;99.90
13052;DHT22;6592;47.484;9.726;2022-10-16T01:11:54;15.40;99.90
13052;DHT22;6592;47.484;9.726;2022-10-16T01:14:31;15.40;99.90
13052;DHT22;6592;47.484;9.726;2022-10-16T01:17:05;15.30;99.90
13052;DHT22;6592;47.484;9.726;2022-10-16T01:19:50;15.30;99.90
13052;DHT22;6592;47.484;9.726;2022-10-16T01:22:24;15.30;99.90
13052;DHT22;6592;47.484;9.726;2022-10-16T01:24:55;15.20;99.90
13052;DHT22;6592;47.484;9.726;2022-10-16T01:27:31;15.20;99.90
13052;DHT22;6592;47.484;9.726;2022-10-16T01:30:06;15.10;99.90
13052;DHT22;6592;47.484;9.726;2022-10-16T01:32:39;15.10;99.90
13052;DHT22;6592;47.484;9.726;2022-10-16T01:35:11;15.10;99.90
13052;DHT22;6592;47.484;9.726;2022-10-16T01:37:48;15.20;99.90
13052;DHT22;6592;47.484;9.726;2022-10-16T01:40:19;15.20;99.90
13052;DHT22;6592;47.484;9.726;2022-10-16T01:43:01;15.20;99.90
13052;DHT22;6592;47.484;9.726;2022-10-16T01:45:33;15.20;99.90
13052;DHT22;6592;47.484;9.726;2022-10-16T01:48:04;15.20;99.90
13052;DHT22;6592;47.484;9.726;2022-10-16T01:50:38;15.30;99.90
13052;DHT22;6592;47.484;9.726;2022-10-16T01:53:10;15.30;99.90
13052;DHT22;6592;47.484;9.726;2022-10-16T01:55:43;15.30;99.90
13052;DHT22;6592;47.484;9.726;2022-10-16T01:58:14;15.30;99.90
13052;DHT22;6592;47.484;9.726;2022-10-16T02:00:45;15.20;99.90
13052;DHT22;6592;47.484;9.726;2022-10-16T02:03:18;15.30;99.90
13052;DHT22;6592;47.484;9.726;2022-10-16T02:05:47;15.30;99.90
13052;DHT22;6592;47.484;9.726;2022-10-16T02:08:17;15.30;99.90
13052;DHT22;6592;47.484;9.726;2022-10-16T02:10:45;15.30;99.90
13052;DHT22;6592;47.484;9.726;2022-10-16T02:13:17;15.30;99.90
13052;DHT22;6592;47.484;9.726;2022-10-16T02:15:48;15.30;99.90
13052;DHT22;6592;47.484;9.726;2022-10-16T02:18:16;15.30;99.90
13052;DHT22;6592;47.484;9.726;2022-10-16T02:20:53;15.30;99.90
13052;DHT22;6592;47.484;9.726;2022-10-16T02:23:30;15.20;99.90
13052;DHT22;6592;47.484;9.726;2022-10-16T02:26:03;15.30;99.90
13052;DHT22;6592;47.484;9.726;2022-10-16T02:28:38;15.20;99.90
13052;DHT22;6592;47.484;9.726;2022-10-16T02:31:11;15.20;99.90
13052;DHT22;6592;47.484;9.726;2022-10-16T02:33:40;15.20;99.90
13052;DHT22;6592;47.484;9.726;2022-10-16T02:36:10;15.20;99.90
13052;DHT22;6592;47.484;9.726;2022-10-16T02:38:42;15.10;99.90
13052;DHT22;6592;47.484;9.726;2022-10-16T02:41:10;15.10;99.90
13052;DHT22;6592;47.484;9.726;2022-10-16T02:43:40;15.10;99.90
13052;DHT22;6592;47.484;9.726;2022-10-16T02:46:09;15.10;99.90
13052;DHT22;6592;47.484;9.726;2022-10-16T02:48:37;15.00;99.90
13052;DHT22;6592;47.484;9.726;2022-10-16T02:51:06;15.00;99.90
13052;DHT22;6592;47.484;9.726;2022-10-16T02:53:34;15.00;99.90
13052;DHT22;6592;47.484;9.726;2022-10-16T02:56:03;15.00;99.90
13052;DHT22;6592;47.484;9.726;2022-10-16T02:58:31;15.00;99.90
13052;DHT22;6592;47.484;9.726;2022-10-16T03:01:00;15.10;99.90
13052;DHT22;6592;47.484;9.726;2022-10-16T03:03:29;15.10;99.90
13052;DHT22;6592;47.484;9.726;2022-10-16T03:05:57;15.20;99.90
13052;DHT22;6592;47.484;9.726;2022-10-16T03:08:25;15.20;99.90
13052;DHT22;6592;47.484;9.726;2022-10-16T03:10:53;15.20;99.90
13052;DHT22;6592;47.484;9.726;2022-10-16T03:13:22;15.20;99.90
13052;DHT22;6592;47.484;9.726;2022-10-16T03:15:50;15.10;99.90
13052;DHT22;6592;47.484;9.726;2022-10-16T03:18:20;15.00;99.90
13052;DHT22;6592;47.484;9.726;2022-10-16T03:20:48;15.00;99.90
13052;DHT22;6592;47.484;9.726;2022-10-16T03:23:16;15.00;99.90
13052;DHT22;6592;47.484;9.726;2022-10-16T03:25:53;14.90;99.90
13052;DHT22;6592;47.484;9.726;2022-10-16T03:28:22;14.80;99.90
13052;DHT22;6592;47.484;9.726;2022-10-16T03:30:50;14.70;99.90
13052;DHT22;6592;47.484;9.726;2022-10-16T03:33:23;14.60;99.90
13052;DHT22;6592;47.484;9.726;2022-10-16T03:35:52;14.50;99.90
13052;DHT22;6592;47.484;9.726;2022-10-16T03:38:22;14.50;99.90
13052;DHT22;6592;47.484;9.726;2022-10-16T03:40:50;14.50;99.90
13052;DHT22;6592;47.484;9.726;2022-10-16T03:43:18;14.60;99.90
13052;DHT22;6592;47.484;9.726;2022-10-16T03:45:46;14.60;99.90
13052;DHT22;6592;47.484;9.726;2022-10-16T03:48:15;14.70;99.90
13052;DHT22;6592;47.484;9.726;2022-10-16T03:50:44;14.70;99.90
13052;DHT22;6592;47.484;9.726;2022-10-16T03:53:14;14.70;99.90
13052;DHT22;6592;47.484;9.726;2022-10-16T03:55:43;14.70;99.90
13052;DHT22;6592;47.484;9.726;2022-10-16T03:58:11;14.70;99.90
13052;DHT22;6592;47.484;9.726;2022-10-16T04:00:40;14.70;99.90
13052;DHT22;6592;47.484;9.726;2022-10-16T04:03:09;14.80;99.90
13052;DHT22;6592;47.484;9.726;2022-10-16T04:05:37;14.80;99.90
13052;DHT22;6592;47.484;9.726;2022-10-16T04:08:08;14.70;99.90
13052;DHT22;6592;47.484;9.726;2022-10-16T04:10:38;14.70;99.90
13052;DHT22;6592;47.484;9.726;2022-10-16T04:13:07;14.70;99.90
13052;DHT22;6592;47.484;9.726;2022-10-16T04:15:35;14.70;99.90
13052;DHT22;6592;47.484;9.726;2022-10-16T04:18:04;14.80;99.90
13052;DHT22;6592;47.484;9.726;2022-10-16T04:20:33;14.70;99.90
13052;DHT22;6592;47.484;9.726;2022-10-16T04:23:02;14.70;99.90
13052;DHT22;6592;47.484;9.726;2022-10-16T04:25:32;14.70;99.90
13052;DHT22;6592;47.484;9.726;2022-10-16T04:28:01;14.70;99.90
13052;DHT22;6592;47.484;9.726;2022-10-16T04:30:29;14.70;99.90
13052;DHT22;6592;47.484;9.726;2022-10-16T04:32:58;14.80;99.90
13052;DHT22;6592;47.484;9.726;2022-10-16T04:35:31;14.80;99.90
13052;DHT22;6592;47.484;9.726;2022-10-16T04:37:59;14.80;99.90
13052;DHT22;6592;47.484;9.726;2022-10-16T04:40:28;14.90;99.90
13052;DHT22;6592;47.484;9.726;2022-10-16T04:43:00;14.90;99.90
13052;DHT22;6592;47.484;9.726;2022-10-16T04:45:29;14.90;99.90
13052;DHT22;6592;47.484;9.726;2022-10-16T04:47:57;14.80;99.90
13052;DHT22;6592;47.484;9.726;2022-10-16T04:50:25;14.80;99.90
13052;DHT22;6592;47.484;9.726;2022-10-16T04:52:54;14.90;99.90
13052;DHT22;6592;47.484;9.726;2022-10-16T04:55:22;14.80;99.90
13052;DHT22;6592;47.484;9.726;2022-10-16T04:57:50;14.80;99.90
13052;DHT22;6592;47.484;9.726;2022-10-16T05:00:20;14.80;99.90
13052;DHT22;6592;47.484;9.726;2022-10-16T05:02:50;14.80;99.90
13052;DHT22;6592;47.484;9.726;2022-10-16T05:05:18;14.70;99.90
13052;DHT22;6592;47.484;9.726;2022-10-16T05:07:47;14.70;99.90
13052;DHT22;6592;47.484;9.726;2022-10-16T05:10:17;14.70;99.90
13052;DHT22;6592;47.484;9.726;2022-10-16T05:12:46;14.60;99.90
13052;DHT22;6592;47.484;9.726;2022-10-16T05:15:15;14.60;99.90
13052;DHT22;6592;47.484;9.726;2022-10-16T05:17:44;14.60;99.90
13052;DHT22;6592;47.484;9.726;2022-10-16T05:20:13;14.60;99.90
13052;DHT22;6592;47.484;9.726;2022-10-16T05:22:42;14.70;99.90
13052;DHT22;6592;47.484;9.726;2022-10-16T05:25:10;14.60;99.90
13052;DHT22;6592;47.484;9.726;2022-10-16T05:27:38;14.60;99.90
13052;DHT22;6592;47.484;9.726;2022-10-16T05:30:07;14.60;99.90
13052;DHT22;6592;47.484;9.726;2022-10-16T05:32:38;14.60;99.90
13052;DHT22;6592;47.484;9.726;2022-10-16T05:35:08;14.60;99.90
13052;DHT22;6592;47.484;9.726;2022-10-16T05:37:38;14.60;99.90
13052;DHT22;6592;47.484;9.726;2022-10-16T05:40:08;14.50;99.90
13052;DHT22;6592;47.484;9.726;2022-10-16T05:42:36;14.50;99.90
13052;DHT22;6592;47.484;9.726;2022-10-16T05:45:06;14.50;99.90
13052;DHT22;6592;47.484;9.726;2022-10-16T05:47:34;14.50;99.90
13052;DHT22;6592;47.484;9.726;2022-10-16T05:50:03;14.50;99.90
13052;DHT22;6592;47.484;9.726;2022-10-16T05:52:33;14.50;99.90
13052;DHT22;6592;47.484;9.726;2022-10-16T05:55:02;14.40;99.90
13052;DHT22;6592;47.484;9.726;2022-10-16T05:57:31;14.40;99.90
13052;DHT22;6592;47.484;9.726;2022-10-16T05:59:59;14.40;99.90
13052;DHT22;6592;47.484;9.726;2022-10-16T06:02:27;14.50;99.90
13052;DHT22;6592;47.484;9.726;2022-10-16T06:04:56;14.40;99.90
13052;DHT22;6592;47.484;9.726;2022-10-16T06:07:24;14.30;99.90
13052;DHT22;6592;47.484;9.726;2022-10-16T06:09:54;14.30;99.90
13052;DHT22;6592;47.484;9.726;2022-10-16T06:12:23;14.40;99.90
13052;DHT22;6592;47.484;9.726;2022-10-16T06:14:51;14.40;99.90
13052;DHT22;6592;47.484;9.726;2022-10-16T06:17:20;14.40;99.90
13052;DHT22;6592;47.484;9.726;2022-10-16T06:19:49;14.60;99.90
13052;DHT22;6592;47.484;9.726;2022-10-16T06:22:18;14.60;99.90
13052;DHT22;6592;47.484;9.726;2022-10-16T06:24:46;14.70;99.90
13052;DHT22;6592;47.484;9.726;2022-10-16T06:27:15;14.70;99.90
13052;DHT22;6592;47.484;9.726;2022-10-16T06:29:44;14.60;99.90
13052;DHT22;6592;47.484;9.726;2022-10-16T06:32:12;14.60;99.90
13052;DHT22;6592;47.484;9.726;2022-10-16T06:34:40;14.60;99.90
13052;DHT22;6592;47.484;9.726;2022-10-16T06:37:10;14.70;99.90
13052;DHT22;6592;47.484;9.726;2022-10-16T06:39:38;14.70;99.90
13052;DHT22;6592;47.484;9.726;2022-10-16T06:42:06;14.90;99.90
13052;DHT22;6592;47.484;9.726;2022-10-16T06:44:36;15.20;99.90
13052;DHT22;6592;47.484;9.726;2022-10-16T06:47:04;15.40;99.90
13052;DHT22;6592;47.484;9.726;2022-10-16T06:49:33;15.50;99.90
13052;DHT22;6592;47.484;9.726;2022-10-16T06:52:02;15.60;99.90
13052;DHT22;6592;47.484;9.726;2022-10-16T06:54:31;15.70;99.90
13052;DHT22;6592;47.484;9.726;2022-10-16T06:57:08;15.70;99.90
13052;DHT22;6592;47.484;9.726;2022-10-16T06:59:37;15.80;99.90
13052;DHT22;6592;47.484;9.726;2022-10-16T07:02:08;15.90;99.90
13052;DHT22;6592;47.484;9.726;2022-10-16T07:04:37;16.00;99.90
13052;DHT22;6592;47.484;9.726;2022-10-16T07:07:05;16.10;99.90
13052;DHT22;6592;47.484;9.726;2022-10-16T07:09:35;16.40;99.90
13052;DHT22;6592;47.484;9.726;2022-10-16T07:12:04;16.50;99.90
13052;DHT22;6592;47.484;9.726;2022-10-16T07:14:32;16.60;99.90
13052;DHT22;6592;47.484;9.726;2022-10-16T07:17:02;16.90;99.90
13052;DHT22;6592;47.484;9.726;2022-10-16T07:19:30;17.30;99.90
13052;DHT22;6592;47.484;9.726;2022-10-16T07:22:00;18.30;99.90
13052;DHT22;6592;47.484;9.726;2022-10-16T07:24:29;19.10;99.90
13052;DHT22;6592;47.484;9.726;2022-10-16T07:26:58;19.30;99.90
13052;DHT22;6592;47.484;9.726;2022-10-16T07:29:26;19.20;99.90
13052;DHT22;6592;47.484;9.726;2022-10-16T07:31:54;18.90;99.90
13052;DHT22;6592;47.484;9.726;2022-10-16T07:34:24;19.00;99.90
13052;DHT22;6592;47.484;9.726;2022-10-16T07:36:53;19.20;99.90
13052;DHT22;6592;47.484;9.726;2022-10-16T07:39:21;19.40;99.90
13052;DHT22;6592;47.484;9.726;2022-10-16T07:41:50;19.70;99.90
13052;DHT22;6592;47.484;9.726;2022-10-16T07:44:18;20.10;99.90
13052;DHT22;6592;47.484;9.726;2022-10-16T07:46:46;20.70;99.90
13052;DHT22;6592;47.484;9.726;2022-10-16T07:49:15;21.30;99.90
13052;DHT22;6592;47.484;9.726;2022-10-16T07:51:44;22.00;99.90
13052;DHT22;6592;47.484;9.726;2022-10-16T07:54:12;23.10;99.90
13052;DHT22;6592;47.484;9.726;2022-10-16T07:56:41;24.10;99.90
13052;DHT22;6592;47.484;9.726;2022-10-16T07:59:10;24.20;99.90
13052;DHT22;6592;47.484;9.726;2022-10-16T08:01:38;23.10;99.90
13052;DHT22;6592;47.484;9.726;2022-10-16T08:04:07;22.00;99.90
13052;DHT22;6592;47.484;9.726;2022-10-16T08:06:37;21.50;99.90
13052;DHT22;6592;47.484;9.726;2022-10-16T08:09:08;21.10;99.90
13052;DHT22;6592;47.484;9.726;2022-10-16T08:11:36;20.60;99.90
13052;DHT22;6592;47.484;9.726;2022-10-16T08:14:04;20.30;99.90
13052;DHT22;6592;47.484;9.726;2022-10-16T08:16:33;20.20;99.90
13052;DHT22;6592;47.484;9.726;2022-10-16T08:19:01;20.00;99.90
13052;DHT22;6592;47.484;9.726;2022-10-16T08:21:29;20.20;99.90
13052;DHT22;6592;47.484;9.726;2022-10-16T08:23:57;20.00;99.90
13052;DHT22;6592;47.484;9.726;2022-10-16T08:26:28;20.00;99.90
13052;DHT22;6592;47.484;9.726;2022-10-16T08:28:56;20.10;99.90
13052;DHT22;6592;47.484;9.726;2022-10-16T08:31:25;20.20;99.90
13052;DHT22;6592;47.484;9.726;2022-10-16T08:33:54;20.30;99.90
13052;DHT22;6592;47.484;9.726;2022-10-16T08:36:22;20.40;99.90
13052;DHT22;6592;47.484;9.726;2022-10-16T08:38:51;20.40;99.90
13052;DHT22;6592;47.484;9.726;2022-10-16T08:44:41;20.70;99.90
13052;DHT22;6592;47.484;9.726;2022-10-16T08:47:17;23.40;99.90
13052;DHT22;6592;47.484;9.726;2022-10-16T08:49:54;25.40;99.90
13052;DHT22;6592;47.484;9.726;2022-10-16T08:52:24;26.80;99.90
13052;DHT22;6592;47.484;9.726;2022-10-16T08:54:55;28.20;99.90
13052;DHT22;6592;47.484;9.726;2022-10-16T08:57:25;28.70;99.90
13052;DHT22;6592;47.484;9.726;2022-10-16T08:59:59;28.60;99.90
13052;DHT22;6592;47.484;9.726;2022-10-16T09:02:32;28.00;99.90
13052;DHT22;6592;47.484;9.726;2022-10-16T09:05:21;28.40;99.90
13052;DHT22;6592;47.484;9.726;2022-10-16T09:08:01;28.80;99.90
13052;DHT22;6592;47.484;9.726;2022-10-16T09:10:43;29.10;99.90
13052;DHT22;6592;47.484;9.726;2022-10-16T09:13:21;28.50;99.90
13052;DHT22;6592;47.484;9.726;2022-10-16T09:15:59;28.10;99.90
13052;DHT22;6592;47.484;9.726;2022-10-16T09:18:35;27.30;99.90
13052;DHT22;6592;47.484;9.726;2022-10-16T09:21:14;26.60;99.90
13052;DHT22;6592;47.484;9.726;2022-10-16T09:23:43;26.50;99.90
13052;DHT22;6592;47.484;9.726;2022-10-16T09:26:14;27.00;99.90
13052;DHT22;6592;47.484;9.726;2022-10-16T09:28:43;28.00;99.90
13052;DHT22;6592;47.484;9.726;2022-10-16T09:31:17;28.70;99.90
13052;DHT22;6592;47.484;9.726;2022-10-16T09:33:52;29.00;99.90
13052;DHT22;6592;47.484;9.726;2022-10-16T09:36:23;28.70;99.90
13052;DHT22;6592;47.484;9.726;2022-10-16T09:39:03;28.90;99.90
13052;DHT22;6592;47.484;9.726;2022-10-16T09:41:34;30.00;99.90
13052;DHT22;6592;47.484;9.726;2022-10-16T09:44:06;31.20;99.20
13052;DHT22;6592;47.484;9.726;2022-10-16T09:46:43;31.40;98.40
13052;DHT22;6592;47.484;9.726;2022-10-16T09:49:21;31.90;96.80
13052;DHT22;6592;47.484;9.726;2022-10-16T09:51:51;32.40;94.00
13052;DHT22;6592;47.484;9.726;2022-10-16T09:54:21;32.40;94.80
13052;DHT22;6592;47.484;9.726;2022-10-16T09:56:50;32.70;92.70
13052;DHT22;6592;47.484;9.726;2022-10-16T09:59:21;32.40;90.80
13052;DHT22;6592;47.484;9.726;2022-10-16T10:01:55;32.00;90.10
13052;DHT22;6592;47.484;9.726;2022-10-16T10:04:25;31.50;90.80
13052;DHT22;6592;47.484;9.726;2022-10-16T10:06:56;31.80;90.80
13052;DHT22;6592;47.484;9.726;2022-10-16T10:09:26;31.80;88.90
13052;DHT22;6592;47.484;9.726;2022-10-16T10:11:56;31.70;89.10
13052;DHT22;6592;47.484;9.726;2022-10-16T10:14:30;32.10;86.20
13052;DHT22;6592;47.484;9.726;2022-10-16T10:17:19;32.20;84.40
13052;DHT22;6592;47.484;9.726;2022-10-16T10:19:51;32.10;85.40
13052;DHT22;6592;47.484;9.726;2022-10-16T10:22:29;31.80;83.30
13052;DHT22;6592;47.484;9.726;2022-10-16T10:25:18;31.70;81.70
13052;DHT22;6592;47.484;9.726;2022-10-16T10:28:18;31.80;83.30
13052;DHT22;6592;47.484;9.726;2022-10-16T10:30:56;32.70;83.00
13052;DHT22;6592;47.484;9.726;2022-10-16T10:33:31;34.10;75.50
13052;DHT22;6592;47.484;9.726;2022-10-16T10:36:12;34.40;75.00
13052;DHT22;6592;47.484;9.726;2022-10-16T10:38:48;34.60;70.00
13052;DHT22;6592;47.484;9.726;2022-10-16T10:41:38;34.70;70.00
13052;DHT22;6592;47.484;9.726;2022-10-16T10:44:18;35.20;69.80
13052;DHT22;6592;47.484;9.726;2022-10-16T10:46:53;35.90;67.80
13052;DHT22;6592;47.484;9.726;2022-10-16T10:49:43;36.70;63.90
13052;DHT22;6592;47.484;9.726;2022-10-16T10:52:23;37.00;61.40
13052;DHT22;6592;47.484;9.726;2022-10-16T10:55:03;37.80;59.20
13052;DHT22;6592;47.484;9.726;2022-10-16T10:57:40;38.00;58.10
13052;DHT22;6592;47.484;9.726;2022-10-16T11:00:19;38.70;58.90
13052;DHT22;6592;47.484;9.726;2022-10-16T11:02:53;39.60;58.40
13052;DHT22;6592;47.484;9.726;2022-10-16T11:05:33;40.50;61.20
13052;DHT22;6592;47.484;9.726;2022-10-16T11:08:06;41.30;59.60
13052;DHT22;6592;47.484;9.726;2022-10-16T11:10:44;42.00;58.50
13052;DHT22;6592;47.484;9.726;2022-10-16T11:13:24;42.70;56.80
13052;DHT22;6592;47.484;9.726;2022-10-16T11:15:55;43.20;55.80
13052;DHT22;6592;47.484;9.726;2022-10-16T11:18:26;43.50;54.50
13052;DHT22;6592;47.484;9.726;2022-10-16T11:21:02;43.40;53.10
13052;DHT22;6592;47.484;9.726;2022-10-16T11:23:38;43.70;53.30
13052;DHT22;6592;47.484;9.726;2022-10-16T11:26:14;43.80;51.60
13052;DHT22;6592;47.484;9.726;2022-10-16T11:28:47;44.00;51.30
13052;DHT22;6592;47.484;9.726;2022-10-16T11:31:22;44.10;51.30
13052;DHT22;6592;47.484;9.726;2022-10-16T11:34:00;44.20;51.10
13052;DHT22;6592;47.484;9.726;2022-10-16T11:36:37;44.40;50.50
13052;DHT22;6592;47.484;9.726;2022-10-16T11:39:16;44.40;50.50
13052;DHT22;6592;47.484;9.726;2022-10-16T11:41:49;44.40;49.90
13052;DHT22;6592;47.484;9.726;2022-10-16T11:44:31;44.40;50.30
13052;DHT22;6592;47.484;9.726;2022-10-16T11:47:08;44.30;49.40
13052;DHT22;6592;47.484;9.726;2022-10-16T11:50:02;44.20;49.50
13052;DHT22;6592;47.484;9.726;2022-10-16T11:52:39;44.10;50.00
13052;DHT22;6592;47.484;9.726;2022-10-16T11:55:15;44.20;49.10
13052;DHT22;6592;47.484;9.726;2022-10-16T11:57:47;44.30;48.50
13052;DHT22;6592;47.484;9.726;2022-10-16T12:00:21;44.20;48.60
13052;DHT22;6592;47.484;9.726;2022-10-16T12:02:57;44.20;48.20
13052;DHT22;6592;47.484;9.726;2022-10-16T12:05:35;44.20;48.10
13052;DHT22;6592;47.484;9.726;2022-10-16T12:08:12;44.10;47.70
13052;DHT22;6592;47.484;9.726;2022-10-16T12:10:43;44.10;48.30
13052;DHT22;6592;47.484;9.726;2022-10-16T12:13:32;43.90;48.10
13052;DHT22;6592;47.484;9.726;2022-10-16T12:16:22;43.70;47.40
13052;DHT22;6592;47.484;9.726;2022-10-16T12:19:08;43.80;47.60
13052;DHT22;6592;47.484;9.726;2022-10-16T12:21:37;43.80;47.60
13052;DHT22;6592;47.484;9.726;2022-10-16T12:24:21;43.60;48.10
13052;DHT22;6592;47.484;9.726;2022-10-16T12:26:55;43.50;48.20
13052;DHT22;6592;47.484;9.726;2022-10-16T12:29:34;43.50;47.70
13052;DHT22;6592;47.484;9.726;2022-10-16T12:32:04;43.20;48.60
13052;DHT22;6592;47.484;9.726;2022-10-16T12:34:39;43.10;48.40
13052;DHT22;6592;47.484;9.726;2022-10-16T12:37:13;43.00;48.40
13052;DHT22;6592;47.484;9.726;2022-10-16T12:39:43;43.10;48.40
13052;DHT22;6592;47.484;9.726;2022-10-16T12:42:30;43.10;48.60
13052;DHT22;6592;47.484;9.726;2022-10-16T12:45:00;43.20;47.60
13052;DHT22;6592;47.484;9.726;2022-10-16T12:47:46;43.00;48.60
13052;DHT22;6592;47.484;9.726;2022-10-16T12:50:30;42.90;48.40
13052;DHT22;6592;47.484;9.726;2022-10-16T12:53:00;42.80;48.00
13052;DHT22;6592;47.484;9.726;2022-10-16T12:55:35;42.60;48.40
13052;DHT22;6592;47.484;9.726;2022-10-16T12:58:24;42.40;47.90
13052;DHT22;6592;47.484;9.726;2022-10-16T13:01:04;42.40;47.90
13052;DHT22;6592;47.484;9.726;2022-10-16T13:06:38;42.60;47.40
13052;DHT22;6592;47.484;9.726;2022-10-16T13:09:18;42.20;47.70
13052;DHT22;6592;47.484;9.726;2022-10-16T13:12:15;42.40;47.80
13052;DHT22;6592;47.484;9.726;2022-10-16T13:15:20;42.50;47.00
13052;DHT22;6592;47.484;9.726;2022-10-16T13:18:00;42.60;47.90
13052;DHT22;6592;47.484;9.726;2022-10-16T13:20:34;42.60;47.70
13052;DHT22;6592;47.484;9.726;2022-10-16T13:23:13;42.60;47.90
13052;DHT22;6592;47.484;9.726;2022-10-16T13:25:58;42.50;47.40
13052;DHT22;6592;47.484;9.726;2022-10-16T13:28:33;42.80;46.60
13052;DHT22;6592;47.484;9.726;2022-10-16T13:31:02;42.90;47.30
13052;DHT22;6592;47.484;9.726;2022-10-16T13:33:33;43.10;47.60
13052;DHT22;6592;47.484;9.726;2022-10-16T13:36:02;43.20;47.00
13052;DHT22;6592;47.484;9.726;2022-10-16T13:38:32;43.20;46.30
13052;DHT22;6592;47.484;9.726;2022-10-16T13:41:02;43.30;46.10
13052;DHT22;6592;47.484;9.726;2022-10-16T13:43:35;43.40;45.50
13052;DHT22;6592;47.484;9.726;2022-10-16T13:46:12;43.20;45.40
13052;DHT22;6592;47.484;9.726;2022-10-16T13:48:41;42.90;45.40
13052;DHT22;6592;47.484;9.726;2022-10-16T13:51:14;42.80;45.20
13052;DHT22;6592;47.484;9.726;2022-10-16T13:53:43;42.50;45.50
13052;DHT22;6592;47.484;9.726;2022-10-16T13:56:14;42.20;45.70
13052;DHT22;6592;47.484;9.726;2022-10-16T13:58:44;42.10;46.00
13052;DHT22;6592;47.484;9.726;2022-10-16T14:01:17;41.50;45.20
13052;DHT22;6592;47.484;9.726;2022-10-16T14:03:47;41.10;45.80
13052;DHT22;6592;47.484;9.726;2022-10-16T14:06:17;41.10;46.60
13052;DHT22;6592;47.484;9.726;2022-10-16T14:08:53;41.00;46.70
13052;DHT22;6592;47.484;9.726;2022-10-16T14:11:24;40.80;46.80
13052;DHT22;6592;47.484;9.726;2022-10-16T14:13:54;40.40;47.20
13052;DHT22;6592;47.484;9.726;2022-10-16T14:16:25;40.10;47.50
13052;DHT22;6592;47.484;9.726;2022-10-16T14:18:57;39.30;48.30
13052;DHT22;6592;47.484;9.726;2022-10-16T14:21:27;38.80;48.70
13052;DHT22;6592;47.484;9.726;2022-10-16T14:23:56;38.70;49.20
13052;DHT22;6592;47.484;9.726;2022-10-16T14:26:26;38.60;49.20
13052;DHT22;6592;47.484;9.726;2022-10-16T14:29:14;38.10;49.90
13052;DHT22;6592;47.484;9.726;2022-10-16T14:31:42;37.80;50.30
13052;DHT22;6592;47.484;9.726;2022-10-16T14:34:25;37.70;51.00
13052;DHT22;6592;47.484;9.726;2022-10-16T14:36:55;37.50;51.10
13052;DHT22;6592;47.484;9.726;2022-10-16T14:39:24;37.40;51.50
13052;DHT22;6592;47.484;9.726;2022-10-16T14:41:56;37.30;51.70
13052;DHT22;6592;47.484;9.726;2022-10-16T14:44:31;37.10;52.00
13052;DHT22;6592;47.484;9.726;2022-10-16T14:47:08;36.80;52.10
13052;DHT22;6592;47.484;9.726;2022-10-16T14:49:37;36.50;53.40
13052;DHT22;6592;47.484;9.726;2022-10-16T14:52:10;36.40;53.50
13052;DHT22;6592;47.484;9.726;2022-10-16T14:54:38;36.00;54.00
13052;DHT22;6592;47.484;9.726;2022-10-16T14:57:16;35.70;54.10
13052;DHT22;6592;47.484;9.726;2022-10-16T14:59:47;35.50;54.80
13052;DHT22;6592;47.484;9.726;2022-10-16T15:02:22;35.50;55.40
13052;DHT22;6592;47.484;9.726;2022-10-16T15:04:53;35.80;55.00
13052;DHT22;6592;47.484;9.726;2022-10-16T15:07:22;36.00;54.70
13052;DHT22;6592;47.484;9.726;2022-10-16T15:09:51;35.90;54.90
13052;DHT22;6592;47.484;9.726;2022-10-16T15:12:19;35.80;54.90
13052;DHT22;6592;47.484;9.726;2022-10-16T15:14:49;35.50;55.50
13052;DHT22;6592;47.484;9.726;2022-10-16T15:17:17;35.20;56.20
13052;DHT22;6592;47.484;9.726;2022-10-16T15:19:47;35.00;56.80
13052;DHT22;6592;47.484;9.726;2022-10-16T15:22:16;35.00;56.90
13052;DHT22;6592;47.484;9.726;2022-10-16T15:24:44;35.00;56.80
13052;DHT22;6592;47.484;9.726;2022-10-16T15:27:12;34.90;56.80
13052;DHT22;6592;47.484;9.726;2022-10-16T15:29:42;34.60;57.20
13052;DHT22;6592;47.484;9.726;2022-10-16T15:32:11;34.10;57.60
13052;DHT22;6592;47.484;9.726;2022-10-16T15:34:40;33.60;57.70
13052;DHT22;6592;47.484;9.726;2022-10-16T15:37:09;33.30;58.20
13052;DHT22;6592;47.484;9.726;2022-10-16T15:39:38;32.70;58.20
13052;DHT22;6592;47.484;9.726;2022-10-16T15:42:07;31.70;59.70
13052;DHT22;6592;47.484;9.726;2022-10-16T15:44:35;31.00;60.90
13052;DHT22;6592;47.484;9.726;2022-10-16T15:47:03;30.40;62.30
13052;DHT22;6592;47.484;9.726;2022-10-16T15:49:33;29.80;63.70
13052;DHT22;6592;47.484;9.726;2022-10-16T15:52:01;29.40;64.80
13052;DHT22;6592;47.484;9.726;2022-10-16T15:54:31;29.00;66.50
13052;DHT22;6592;47.484;9.726;2022-10-16T15:56:59;28.60;68.30
13052;DHT22;6592;47.484;9.726;2022-10-16T15:59:28;28.30;69.40
13052;DHT22;6592;47.484;9.726;2022-10-16T16:01:57;28.10;70.30
13052;DHT22;6592;47.484;9.726;2022-10-16T16:04:25;27.90;71.60
13052;DHT22;6592;47.484;9.726;2022-10-16T16:07:12;27.50;71.90
13052;DHT22;6592;47.484;9.726;2022-10-16T16:09:41;27.20;72.30
13052;DHT22;6592;47.484;9.726;2022-10-16T16:12:12;26.80;73.20
13052;DHT22;6592;47.484;9.726;2022-10-16T16:14:40;26.40;74.00
13052;DHT22;6592;47.484;9.726;2022-10-16T16:17:09;26.10;74.80
13052;DHT22;6592;47.484;9.726;2022-10-16T16:19:37;25.70;75.50
13052;DHT22;6592;47.484;9.726;2022-10-16T16:22:05;25.30;76.40